Wetterdaten: Woche 15.03.10 - 21.03.10 (KW11)
Datum Zeit Temp. A. Feuchte A. Luftdruck Regen Wind Richtung Taupunkt Windchill Windben
15.03.2010 00:00 3,5 C 79 % 1024,3 hPa 0,0 l/m 1,9 km/h N-NO 0,2 C 3,5 C 1,1 km/h
15.03.2010 01:00 2,3 C 83 % 1024,6 hPa 0,4 l/m 0,0 km/h SO -0,3 C 2,3 C 0,0 km/h
15.03.2010 02:00 1,8 C 88 % 1024,4 hPa 0,0 l/m 0,0 km/h O-NO 0,0 C 1,8 C 0,0 km/h
15.03.2010 03:00 1,6 C 90 % 1024,0 hPa 0,0 l/m 0,0 km/h NO 0,1 C 1,6 C 0,0 km/h
15.03.2010 04:00 1,8 C 90 % 1024,0 hPa 0,0 l/m 0,0 km/h SO 0,3 C 1,8 C 0,0 km/h
15.03.2010 05:00 1,8 C 91 % 1024,1 hPa 0,4 l/m 0,0 km/h O-SO 0,5 C 1,8 C 0,0 km/h
15.03.2010 06:00 1,9 C 91 % 1024,5 hPa 0,4 l/m 0,0 km/h O 0,6 C 1,9 C 0,0 km/h
15.03.2010 07:00 2,1 C 91 % 1024,7 hPa 0,0 l/m 0,0 km/h O 0,8 C 2,1 C 0,0 km/h
15.03.2010 08:00 2,7 C 92 % 1025,2 hPa 0,0 l/m 0,0 km/h O-NO 1,5 C 2,7 C 0,0 km/h
15.03.2010 09:00 4,1 C 90 % 1025,3 hPa 0,4 l/m 0,0 km/h S 2,6 C 4,1 C 0,0 km/h
15.03.2010 10:00 4,8 C 88 % 1025,5 hPa 0,7 l/m 0,0 km/h S-SO 3,0 C 4,8 C 0,0 km/h
15.03.2010 11:00 6,4 C 83 % 1025,5 hPa 0,4 l/m 0,0 km/h SW 3,7 C 6,4 C 0,0 km/h
15.03.2010 12:00 8,8 C 78 % 1025,4 hPa 0,0 l/m 13,0 km/h S-SO 5,2 C 4,6 C 7,2 km/h
15.03.2010 13:00 8,2 C 75 % 1024,9 hPa 0,0 l/m 0,0 km/h S 4,0 C 8,2 C 0,0 km/h
15.03.2010 14:00 10,4 C 67 % 1024,3 hPa 0,0 l/m 0,0 km/h SW 4,5 C 10,4 C 0,0 km/h
15.03.2010 15:00 9,0 C 68 % 1024,0 hPa 0,0 l/m 0,0 km/h SO 3,4 C 9,0 C 0,0 km/h
15.03.2010 16:00 11,2 C 68 % 1023,7 hPa 0,0 l/m 8,4 km/h S 5,5 C 9,9 C 4,7 km/h
15.03.2010 17:00 10,4 C 66 % 1023,3 hPa 0,0 l/m 18,1 km/h S 4,3 C 4,4 C 10,1 km/h
15.03.2010 18:00 4,4 C 82 % 1023,5 hPa 0,0 l/m 1,9 km/h SO 1,6 C 4,4 C 1,1 km/h
15.03.2010 19:00 2,5 C 88 % 1023,6 hPa 0,0 l/m 0,0 km/h O-SO 0,7 C 2,5 C 0,0 km/h
15.03.2010 20:00 2,8 C 90 % 1023,3 hPa 0,0 l/m 0,0 km/h NO 1,3 C 2,8 C 0,0 km/h
15.03.2010 21:00 3,4 C 90 % 1023,5 hPa 0,0 l/m 0,0 km/h NO 1,9 C 3,4 C 0,0 km/h
15.03.2010 22:00 3,9 C 90 % 1023,2 hPa 0,0 l/m 1,3 km/h W 2,4 C 3,9 C 0,7 km/h
15.03.2010 23:00 6,2 C 78 % 1022,9 hPa 0,0 l/m 14,9 km/h W-SW 2,7 C 0,6 C 8,3 km/h
16.03.2010 00:00 5,8 C 78 % 1022,8 hPa 0,0 l/m 20,7 km/h W-SW 2,3 C -2,4 C 11,5 km/h
16.03.2010 01:00 5,3 C 80 % 1022,7 hPa 0,4 l/m 0,0 km/h W 2,1 C 5,3 C 0,0 km/h
16.03.2010 02:00 5,3 C 80 % 1022,5 hPa 0,0 l/m 9,7 km/h W-NW 2,1 C 2,6 C 5,4 km/h
16.03.2010 03:00 4,8 C 82 % 1022,4 hPa 0,0 l/m 0,0 km/h NO 2,0 C 4,8 C 0,0 km/h
16.03.2010 04:00 4,1 C 86 % 1022,5 hPa 0,0 l/m 0,0 km/h NO 2,0 C 4,1 C 0,0 km/h
16.03.2010 05:00 3,8 C 89 % 1023,2 hPa 0,7 l/m 0,0 km/h O-NO 2,2 C 3,8 C 0,0 km/h
16.03.2010 06:00 3,8 C 91 % 1023,7 hPa 1,1 l/m 0,0 km/h S-SO 2,5 C 3,8 C 0,0 km/h
16.03.2010 07:00 3,9 C 92 % 1024,2 hPa 1,1 l/m 8,4 km/h S-SO 2,7 C 2,1 C 4,7 km/h
16.03.2010 08:00 4,7 C 91 % 1024,8 hPa 0,7 l/m 9,1 km/h S-SO 3,4 C 2,4 C 5,0 km/h
16.03.2010 09:00 6,1 C 86 % 1025,4 hPa 0,0 l/m 4,5 km/h S-SW 3,9 C 6,1 C 2,5 km/h
16.03.2010 10:00 8,3 C 80 % 1025,5 hPa 0,0 l/m 13,6 km/h W-SW 5,1 C 3,7 C 7,6 km/h
16.03.2010 11:00 12,3 C 67 % 1025,6 hPa 0,0 l/m 23,3 km/h W 6,4 C 5,4 C 13,0 km/h
16.03.2010 12:00 10,9 C 63 % 1025,6 hPa 0,0 l/m 5,8 km/h W-NW 4,1 C 10,9 C 3,2 km/h
16.03.2010 13:00 12,6 C 59 % 1025,7 hPa 0,0 l/m 13,0 km/h SW 4,8 C 9,1 C 7,2 km/h
16.03.2010 14:00 13,9 C 53 % 1025,4 hPa 0,0 l/m 15,6 km/h W 4,5 C 9,7 C 8,6 km/h
16.03.2010 15:00 13,1 C 54 % 1025,3 hPa 0,0 l/m 3,9 km/h W-NW 4,0 C 13,1 C 2,2 km/h
16.03.2010 16:00 14,3 C 48 % 1025,1 hPa 0,0 l/m 1,9 km/h N-NO 3,4 C 14,3 C 1,1 km/h
16.03.2010 17:00 12,7 C 50 % 1025,4 hPa 0,0 l/m 0,0 km/h O 2,6 C 12,7 C 0,0 km/h
16.03.2010 18:00 6,6 C 70 % 1026,0 hPa 0,0 l/m 0,0 km/h O-SO 1,5 C 6,6 C 0,0 km/h
16.03.2010 19:00 4,1 C 80 % 1026,4 hPa 0,0 l/m 0,0 km/h O-SO 1,0 C 4,1 C 0,0 km/h
16.03.2010 20:00 3,0 C 85 % 1026,7 hPa 0,0 l/m 0,0 km/h O-SO 0,7 C 3,0 C 0,0 km/h
16.03.2010 21:00 1,9 C 87 % 1026,8 hPa 0,0 l/m 0,0 km/h O-SO -0,0 C 1,9 C 0,0 km/h
16.03.2010 22:00 1,5 C 89 % 1026,9 hPa 0,0 l/m 0,0 km/h SO -0,1 C 1,5 C 0,0 km/h
16.03.2010 23:00 1,0 C 90 % 1027,1 hPa 0,0 l/m 0,6 km/h SO -0,5 C 1,0 C 0,4 km/h
17.03.2010 00:00 0,5 C 91 % 1026,9 hPa 0,0 l/m 0,0 km/h O-NO -0,8 C 0,5 C 0,0 km/h
17.03.2010 01:00 -0,2 C 91 % 1027,4 hPa 0,0 l/m 0,0 km/h O-SO -1,5 C -0,2 C 0,0 km/h
17.03.2010 02:00 -0,2 C 91 % 1026,8 hPa 0,0 l/m 0,0 km/h S-SO -1,5 C -0,2 C 0,0 km/h
17.03.2010 03:00 -0,6 C 92 % 1026,4 hPa 0,0 l/m 0,0 km/h O-SO -1,7 C -0,6 C 0,0 km/h
17.03.2010 04:00 -0,7 C 92 % 1026,5 hPa 0,0 l/m 0,0 km/h NO -1,8 C -0,7 C 0,0 km/h
17.03.2010 05:00 -1,5 C 92 % 1026,8 hPa 0,0 l/m 0,0 km/h O-NO -2,6 C -1,5 C 0,0 km/h
17.03.2010 06:00 -0,8 C 92 % 1026,8 hPa 0,0 l/m 5,2 km/h O-SO -1,9 C -0,8 C 2,9 km/h
17.03.2010 07:00 0,2 C 93 % 1026,8 hPa 0,0 l/m 0,0 km/h O-SO -0,8 C 0,2 C 0,0 km/h
17.03.2010 08:00 4,1 C 89 % 1027,3 hPa 0,0 l/m 0,0 km/h SO 2,5 C 4,1 C 0,0 km/h
17.03.2010 09:00 8,7 C 73 % 1027,1 hPa 0,0 l/m 0,0 km/h W-SW 4,1 C 8,7 C 0,0 km/h
17.03.2010 10:00 11,1 C 64 % 1026,6 hPa 0,0 l/m 0,0 km/h W-NW 4,6 C 11,1 C 0,0 km/h
17.03.2010 11:00 15,2 C 51 % 1026,1 hPa 0,0 l/m 7,1 km/h W 5,1 C 14,8 C 4,0 km/h
17.03.2010 12:00 14,9 C 47 % 1026,0 hPa 0,0 l/m 12,3 km/h NW 3,7 C 12,0 C 6,8 km/h
17.03.2010 13:00 15,8 C 43 % 1025,0 hPa 0,0 l/m 18,8 km/h W 3,3 C 11,1 C 10,4 km/h
17.03.2010 14:00 18,1 C 39 % 1024,5 hPa 0,0 l/m 7,8 km/h W-SW 3,9 C 17,4 C 4,3 km/h
17.03.2010 15:00 17,2 C 39 % 1024,5 hPa 0,0 l/m 22,0 km/h SW 3,1 C 12,2 C 12,2 km/h
17.03.2010 16:00 15,5 C 40 % 1024,1 hPa 0,0 l/m 12,3 km/h S-SW 2,0 C 12,7 C 6,8 km/h
17.03.2010 17:00 13,1 C 45 % 1024,1 hPa 0,0 l/m 7,1 km/h NO 1,4 C 12,7 C 4,0 km/h
17.03.2010 18:00 10,0 C 52 % 1024,4 hPa 0,0 l/m 2,6 km/h O 0,6 C 10,0 C 1,4 km/h
17.03.2010 19:00 7,4 C 60 % 1024,4 hPa 0,0 l/m 0,0 km/h O 0,2 C 7,4 C 0,0 km/h
17.03.2010 20:00 5,8 C 66 % 1024,4 hPa 0,0 l/m 0,0 km/h O-SO -0,0 C 5,8 C 0,0 km/h
17.03.2010 21:00 4,9 C 69 % 1024,8 hPa 0,0 l/m 5,2 km/h O -0,3 C 4,9 C 2,9 km/h
17.03.2010 22:00 4,3 C 70 % 1024,7 hPa 0,0 l/m 14,9 km/h SO -0,7 C -1,7 C 8,3 km/h
17.03.2010 23:00 3,8 C 72 % 1024,5 hPa 0,0 l/m 1,9 km/h NO -0,8 C 3,8 C 1,1 km/h
18.03.2010 00:00 3,6 C 73 % 1024,7 hPa 0,0 l/m 10,4 km/h NO -0,8 C 0,2 C 5,8 km/h
18.03.2010 01:00 3,8 C 72 % 1024,7 hPa 0,0 l/m 0,0 km/h SO -0,8 C 3,8 C 0,0 km/h
18.03.2010 02:00 3,9 C 72 % 1024,4 hPa 0,0 l/m 0,0 km/h O-NO -0,7 C 3,9 C 0,0 km/h
18.03.2010 03:00 4,3 C 71 % 1024,0 hPa 0,0 l/m 0,0 km/h O-NO -0,5 C 4,3 C 0,0 km/h
18.03.2010 04:00 3,5 C 73 % 1024,0 hPa 0,0 l/m 4,5 km/h O-NO -0,9 C 3,5 C 2,5 km/h
18.03.2010 05:00 3,1 C 75 % 1024,0 hPa 0,0 l/m 0,0 km/h O-SO -0,9 C 3,1 C 0,0 km/h
18.03.2010 06:00 2,9 C 76 % 1024,2 hPa 0,0 l/m 2,6 km/h O -0,9 C 2,9 C 1,4 km/h
18.03.2010 07:00 3,9 C 75 % 1024,5 hPa 0,0 l/m 0,0 km/h O-SO -0,1 C 3,9 C 0,0 km/h
18.03.2010 08:00 7,5 C 69 % 1024,4 hPa 0,0 l/m 0,0 km/h O-NO 2,2 C 7,5 C 0,0 km/h
18.03.2010 09:00 12,2 C 59 % 1024,4 hPa 0,0 l/m 0,0 km/h S-SO 4,4 C 12,2 C 0,0 km/h
18.03.2010 10:00 19,1 C 37 % 1024,0 hPa 0,0 l/m 0,0 km/h W-NW 4,1 C 19,1 C 0,0 km/h
18.03.2010 11:00 18,5 C 33 % 1023,6 hPa 0,0 l/m 14,9 km/h W-SW 1,9 C 15,5 C 8,3 km/h
18.03.2010 12:00 18,4 C 31 % 1022,8 hPa 0,0 l/m 24,0 km/h W-SW 1,0 C 13,4 C 13,3 km/h
18.03.2010 13:00 18,5 C 27 % 1021,8 hPa 0,0 l/m 13,0 km/h W -0,8 C 16,0 C 7,2 km/h
18.03.2010 14:00 20,3 C 29 % 1021,0 hPa 0,0 l/m 9,7 km/h W-SW 1,7 C 19,1 C 5,4 km/h
18.03.2010 15:00 22,1 C 26 % 1020,4 hPa 0,0 l/m 0,0 km/h S-SW 1,7 C 22,1 C 0,0 km/h
18.03.2010 16:00 17,6 C 32 % 1019,7 hPa 0,0 l/m 4,5 km/h N-NW 0,7 C 17,6 C 2,5 km/h
18.03.2010 17:00 15,4 C 35 % 1019,3 hPa 0,0 l/m 0,0 km/h SO 0,0 C 15,4 C 0,0 km/h
18.03.2010 18:00 10,7 C 49 % 1019,4 hPa 0,0 l/m 0,0 km/h NO 0,4 C 10,7 C 0,0 km/h
18.03.2010 19:00 9,3 C 52 % 1019,9 hPa 0,0 l/m 0,0 km/h O-SO -0,0 C 9,3 C 0,0 km/h
18.03.2010 20:00 7,9 C 56 % 1019,7 hPa 0,0 l/m 7,8 km/h NO -0,3 C 6,8 C 4,3 km/h
18.03.2010 21:00 7,2 C 59 % 1019,9 hPa 0,0 l/m 1,3 km/h SO -0,3 C 7,2 C 0,7 km/h
18.03.2010 22:00 6,6 C 61 % 1020,2 hPa 0,0 l/m 10,4 km/h O-NO -0,4 C 3,6 C 5,8 km/h
18.03.2010 23:00 6,4 C 64 % 1020,3 hPa 0,0 l/m 10,4 km/h S-SO 0,1 C 3,4 C 5,8 km/h
19.03.2010 00:00 10,3 C 51 % 1020,3 hPa 0,0 l/m 9,1 km/h S-SO 0,6 C 8,5 C 5,0 km/h
19.03.2010 01:00 11,6 C 46 % 1020,8 hPa 0,0 l/m 0,0 km/h S-SW 0,4 C 11,6 C 0,0 km/h
19.03.2010 02:00 11,9 C 45 % 1020,9 hPa 0,0 l/m 24,0 km/h SW 0,4 C 4,7 C 13,3 km/h
19.03.2010 03:00 12,1 C 46 % 1021,0 hPa 0,0 l/m 22,7 km/h S 0,8 C 5,2 C 12,6 km/h
19.03.2010 04:00 11,5 C 49 % 1021,3 hPa 0,0 l/m 26,6 km/h S-SW 1,2 C 3,5 C 14,8 km/h
19.03.2010 05:00 11,1 C 51 % 1021,4 hPa 0,0 l/m 35,0 km/h W-SW 1,4 C 1,3 C 19,4 km/h
19.03.2010 06:00 10,3 C 54 % 1021,9 hPa 0,0 l/m 25,9 km/h SW 1,4 C 2,0 C 14,4 km/h
19.03.2010 07:00 11,1 C 53 % 1022,1 hPa 0,0 l/m 25,3 km/h W-SW 1,9 C 3,2 C 14,0 km/h
19.03.2010 08:00 13,3 C 50 % 1022,4 hPa 0,0 l/m 19,4 km/h S-SW 3,1 C 7,7 C 10,8 km/h
19.03.2010 09:00 12,6 C 50 % 1022,5 hPa 0,0 l/m 18,8 km/h S-SW 2,5 C 7,0 C 10,4 km/h
19.03.2010 10:00 17,2 C 42 % 1021,5 hPa 0,0 l/m 22,7 km/h W 4,2 C 12,0 C 12,6 km/h
19.03.2010 11:00 18,5 C 40 % 1020,8 hPa 0,0 l/m 31,1 km/h W-SW 4,6 C 12,5 C 17,3 km/h
19.03.2010 12:00 18,9 C 40 % 1020,3 hPa 0,0 l/m 22,7 km/h W-SW 5,0 C 14,3 C 12,6 km/h
19.03.2010 13:00 19,8 C 42 % 1019,2 hPa 0,0 l/m 20,7 km/h W 6,5 C 15,8 C 11,5 km/h
19.03.2010 14:00 21,8 C 38 % 1018,0 hPa 0,0 l/m 20,7 km/h W 6,8 C 18,4 C 11,5 km/h
19.03.2010 15:00 23,1 C 34 % 1017,2 hPa 0,0 l/m 18,1 km/h W-SW 6,4 C 20,5 C 10,1 km/h
19.03.2010 16:00 20,1 C 38 % 1016,6 hPa 0,0 l/m 2,6 km/h S-SO 5,3 C 20,1 C 1,4 km/h
19.03.2010 17:00 16,9 C 48 % 1016,3 hPa 0,0 l/m 11,7 km/h NO 5,8 C 14,6 C 6,5 km/h
19.03.2010 18:00 13,3 C 56 % 1016,4 hPa 0,0 l/m 0,0 km/h O-SO 4,7 C 13,3 C 0,0 km/h
19.03.2010 19:00 11,5 C 61 % 1016,7 hPa 0,0 l/m 0,0 km/h NO 4,2 C 11,5 C 0,0 km/h
19.03.2010 20:00 9,9 C 65 % 1016,3 hPa 0,0 l/m 3,2 km/h O 3,6 C 9,9 C 1,8 km/h
19.03.2010 21:00 9,6 C 68 % 1016,1 hPa 0,0 l/m 3,2 km/h O-SO 4,0 C 9,6 C 1,8 km/h
19.03.2010 22:00 9,2 C 68 % 1015,5 hPa 0,0 l/m 0,0 km/h NO 3,6 C 9,2 C 0,0 km/h
19.03.2010 23:00 9,4 C 68 % 1015,1 hPa 0,0 l/m 0,0 km/h SO 3,8 C 9,4 C 0,0 km/h
20.03.2010 00:00 9,0 C 70 % 1015,2 hPa 0,0 l/m 0,0 km/h SO 3,8 C 9,0 C 0,0 km/h
20.03.2010 01:00 9,3 C 71 % 1015,8 hPa 0,0 l/m 0,0 km/h SW 4,3 C 9,3 C 0,0 km/h
20.03.2010 02:00 14,0 C 58 % 1015,9 hPa 0,0 l/m 27,9 km/h SW 5,9 C 6,7 C 15,5 km/h
20.03.2010 03:00 11,8 C 76 % 1016,1 hPa 0,0 l/m 22,7 km/h W-SW 7,7 C 4,9 C 12,6 km/h
20.03.2010 04:00 11,6 C 79 % 1015,8 hPa 0,0 l/m 31,1 km/h S-SW 8,1 C 2,7 C 17,3 km/h
20.03.2010 05:00 11,2 C 84 % 1016,1 hPa 0,0 l/m 21,4 km/h SW 8,6 C 4,4 C 11,9 km/h
20.03.2010 06:00 11,8 C 80 % 1016,0 hPa 0,0 l/m 3,2 km/h W-SW 8,5 C 11,8 C 1,8 km/h
20.03.2010 07:00 12,6 C 75 % 1016,2 hPa 0,0 l/m 24,0 km/h S-SW 8,3 C 5,6 C 13,3 km/h
20.03.2010 08:00 12,9 C 74 % 1016,1 hPa 0,0 l/m 22,0 km/h SW 8,4 C 6,5 C 12,2 km/h
20.03.2010 09:00 13,9 C 70 % 1015,7 hPa 0,0 l/m 13,0 km/h W-SW 8,5 C 10,6 C 7,2 km/h
20.03.2010 10:00 15,9 C 63 % 1015,4 hPa 0,0 l/m 27,9 km/h W 8,9 C 9,3 C 15,5 km/h
20.03.2010 11:00 17,4 C 59 % 1014,7 hPa 0,0 l/m 5,8 km/h W-SW 9,3 C 17,4 C 3,2 km/h
20.03.2010 12:00 18,1 C 58 % 1014,4 hPa 0,0 l/m 22,7 km/h W-SW 9,7 C 13,2 C 12,6 km/h
20.03.2010 13:00 17,0 C 61 % 1013,9 hPa 0,0 l/m 20,7 km/h SW 9,4 C 12,2 C 11,5 km/h
20.03.2010 14:00 15,9 C 65 % 1013,7 hPa 0,0 l/m 13,0 km/h W 9,3 C 12,9 C 7,2 km/h
20.03.2010 15:00 15,9 C 64 % 1013,7 hPa 0,0 l/m 7,8 km/h S-SW 9,1 C 15,1 C 4,3 km/h
20.03.2010 16:00 15,5 C 65 % 1013,7 hPa 0,0 l/m 29,8 km/h W-SW 8,9 C 8,4 C 16,6 km/h
20.03.2010 17:00 14,8 C 69 % 1013,8 hPa 0,0 l/m 11,7 km/h W-SW 9,2 C 12,2 C 6,5 km/h
20.03.2010 18:00 12,4 C 81 % 1014,3 hPa 0,7 l/m 0,0 km/h O-SO 9,2 C 12,4 C 0,0 km/h
20.03.2010 19:00 11,9 C 87 % 1014,0 hPa 0,0 l/m 0,0 km/h SO 9,8 C 11,9 C 0,0 km/h
20.03.2010 20:00 11,4 C 88 % 1013,7 hPa 0,0 l/m 0,0 km/h O-NO 9,5 C 11,4 C 0,0 km/h
20.03.2010 21:00 11,2 C 90 % 1013,5 hPa 0,0 l/m 0,0 km/h NO 9,6 C 11,2 C 0,0 km/h
20.03.2010 22:00 11,3 C 91 % 1013,8 hPa 0,0 l/m 1,3 km/h O-SO 9,9 C 11,3 C 0,7 km/h
20.03.2010 23:00 11,9 C 89 % 1013,6 hPa 0,4 l/m 1,3 km/h S 10,1 C 11,9 C 0,7 km/h
21.03.2010 00:00 13,0 C 82 % 1013,1 hPa 0,0 l/m 0,0 km/h S-SO 10,0 C 13,0 C 0,0 km/h
21.03.2010 01:00 13,0 C 81 % 1012,4 hPa 0,0 l/m 5,8 km/h NO 9,8 C 13,0 C 3,2 km/h
21.03.2010 02:00 12,9 C 81 % 1011,8 hPa 0,0 l/m 6,5 km/h W-SW 9,7 C 12,9 C 3,6 km/h
21.03.2010 03:00 12,3 C 84 % 1012,6 hPa 0,0 l/m 9,7 km/h SW 9,7 C 10,3 C 5,4 km/h
21.03.2010 04:00 12,0 C 88 % 1012,6 hPa 0,7 l/m 23,3 km/h W 10,1 C 5,0 C 13,0 km/h
21.03.2010 05:00 12,1 C 88 % 1012,8 hPa 0,0 l/m 24,0 km/h SW 10,2 C 4,9 C 13,3 km/h
21.03.2010 06:00 12,3 C 88 % 1013,3 hPa 0,4 l/m 27,9 km/h W-SW 10,4 C 4,3 C 15,5 km/h
21.03.2010 07:00 13,1 C 85 % 1013,9 hPa 0,0 l/m 23,3 km/h S-SW 10,6 C 6,4 C 13,0 km/h
21.03.2010 08:00 13,5 C 82 % 1014,2 hPa 0,0 l/m 26,6 km/h W-SW 10,5 C 6,2 C 14,8 km/h
21.03.2010 09:00 14,5 C 77 % 1014,4 hPa 0,0 l/m 26,6 km/h W-SW 10,5 C 7,6 C 14,8 km/h
21.03.2010 10:00 14,6 C 76 % 1015,3 hPa 0,0 l/m 22,0 km/h W 10,4 C 8,7 C 12,2 km/h
21.03.2010 11:00 14,9 C 75 % 1015,5 hPa 0,0 l/m 22,7 km/h W-SW 10,5 C 9,0 C 12,6 km/h
21.03.2010 12:00 15,0 C 73 % 1015,9 hPa 0,0 l/m 43,4 km/h W-SW 10,2 C 5,9 C 24,1 km/h
21.03.2010 13:00 14,6 C 75 % 1016,3 hPa 0,0 l/m 30,5 km/h SW 10,2 C 7,0 C 16,9 km/h
21.03.2010 14:00 17,6 C 69 % 1016,6 hPa 0,0 l/m 29,8 km/h W-SW 11,8 C 11,4 C 16,6 km/h
21.03.2010 15:00 16,2 C 69 % 1016,9 hPa 0,0 l/m 38,2 km/h W-NW 10,5 C 8,3 C 21,2 km/h
21.03.2010 16:00 14,2 C 61 % 1017,8 hPa 0,0 l/m 0,0 km/h N 6,8 C 14,2 C 0,0 km/h
21.03.2010 17:00 15,8 C 52 % 1018,6 hPa 0,0 l/m 5,2 km/h N-NO 6,0 C 15,8 C 2,9 km/h
21.03.2010 18:00 11,2 C 66 % 1019,6 hPa 0,0 l/m 1,3 km/h SO 5,1 C 11,2 C 0,7 km/h
21.03.2010 19:00 9,1 C 74 % 1020,2 hPa 0,0 l/m 0,0 km/h N-NO 4,7 C 9,1 C 0,0 km/h
21.03.2010 20:00 9,3 C 77 % 1020,9 hPa 0,0 l/m 0,0 km/h O-SO 5,5 C 9,3 C 0,0 km/h
21.03.2010 21:00 8,9 C 79 % 1021,1 hPa 0,0 l/m 0,0 km/h O-NO 5,5 C 8,9 C 0,0 km/h
21.03.2010 22:00 8,5 C 80 % 1021,5 hPa 0,0 l/m 0,0 km/h SO 5,3 C 8,5 C 0,0 km/h
21.03.2010 23:00 8,3 C 84 % 1021,7 hPa 0,0 l/m 0,0 km/h SO 5,8 C 8,3 C 0,0 km/h
Min-Datum _ 17.03.10 18.03.10 21.03.10 - 15.03.10 - 17.03.10 16.03.10 15.03.10
_ Min-Zeit 05:53 15:53 02:53 - 01:53 - 05:53 00:53 01:53
Minimum _ -1,5 C 26 % 1011,8 hPa - 0,0 km/h - -2,6 C -2,4 C 0,0 km/h
Max-Datum _ 19.03.10 17.03.10 17.03.10 16.03.10 21.03.10 - 21.03.10 18.03.10 21.03.10
_ Max-Zeit 15:53 07:53 01:53 06:53 12:53 - 14:53 15:53 12:53
Maximum _ 23,1 C 93 % 1027,4 hPa 1,1 l/m 43,4 km/h
W-SW
- 11,8 C 22,1 C 24,1 km/h
W-SW
Durchschnitt _ 9,8 C 69 % 1021,0 hPa #8,5 l/m 8,7 km/h W-SW 3,8 C 7,8 C 4,8 km/h